Time;durP1;ratioP1;P1;durP2;ratioP2;P2;SDS_P1;SDS_P2;PMS_P1;PMS_P2;Temp;Humidity;BMP_temperature;BMP_pressure;BME280_temperature;BME280_humidity;BME280_pressure;Samples;Min_cycle;Max_cycle;Signal;HPM_P1;HPM_P2
2023/02/09 00:02:02;;;;;;;;;;;;;;;-3.72;76.00;103625.80;107383;1256;125420;-88
2023/02/09 00:04:28;;;;;;;;;;;;;;;-3.71;76.10;103627.66;107693;1257;61447;-80
2023/02/09 00:06:54;;;;;;;;;;;;;;;-3.70;76.02;103628.41;107675;1261;125407;-80
2023/02/09 00:09:21;;;;;;;;;;;;;;;-3.69;76.04;103622.67;107796;1257;59598;-80
2023/02/09 00:14:32;;;;;;;;;;;;;;;-3.71;76.06;103616.51;107811;1256;73426;-79
2023/02/09 00:17:02;;;;;;;;;;;;;;;-3.71;76.10;103610.63;107935;1256;65449;-79
2023/02/09 00:19:28;;;;;;;;;;;;;;;-3.69;76.23;103602.44;107880;1256;125661;-80
2023/02/09 00:21:55;;;;;;;;;;;;;;;-3.68;76.27;103599.17;107907;1257;61428;-80
2023/02/09 00:24:22;;;;;;;;;;;;;;;-3.68;76.16;103593.44;108141;1257;125577;-80
2023/02/09 00:26:48;;;;;;;;;;;;;;;-3.67;76.25;103588.02;107916;1258;61163;-79
2023/02/09 00:29:14;;;;;;;;;;;;;;;-3.65;76.30;103586.51;107532;1257;61179;-80
2023/02/09 00:31:40;;;;;;;;;;;;;;;-3.64;76.22;103589.20;107573;1257;124794;-80
2023/02/09 00:34:07;;;;;;;;;;;;;;;-3.63;76.24;103585.75;107869;1257;61310;-80
2023/02/09 00:36:33;;;;;;;;;;;;;;;-3.60;76.21;103581.99;107909;1259;124921;-80
2023/02/09 00:38:59;;;;;;;;;;;;;;;-3.56;76.32;103576.84;107836;1256;61513;-80
2023/02/09 00:44:11;;;;;;;;;;;;;;;-3.52;76.26;103566.41;107950;1256;72637;-80
2023/02/09 00:46:37;;;;;;;;;;;;;;;-3.47;76.26;103562.24;107794;1259;60033;-80
2023/02/09 00:49:03;;;;;;;;;;;;;;;-3.45;76.24;103555.86;107682;1256;125602;-79
2023/02/09 00:51:30;;;;;;;;;;;;;;;-3.42;76.26;103549.60;107650;1259;61075;-79
2023/02/09 00:53:56;;;;;;;;;;;;;;;-3.41;76.09;103543.55;107458;1254;125159;-80
2023/02/09 00:56:22;;;;;;;;;;;;;;;-3.41;75.92;103540.77;107597;1256;60395;-80
2023/02/09 00:58:48;;;;;;;;;;;;;;;-3.40;76.03;103532.34;107618;1256;61226;-79
2023/02/09 01:01:15;;;;;;;;;;;;;;;-3.38;75.96;103526.41;107444;1256;124882;-80
2023/02/09 01:03:41;;;;;;;;;;;;;;;-3.35;75.92;103528.11;107639;1256;59694;-79
2023/02/09 01:06:07;;;;;;;;;;;;;;;-3.33;75.87;103529.40;107312;1257;126423;-79
2023/02/09 01:08:34;;;;;;;;;;;;;;;-3.33;75.76;103528.88;107594;1257;61314;-79
2023/02/09 01:11:06;;;;;;;;;;;;;;;-3.34;75.80;103521.88;107748;1256;61167;-79
2023/02/09 01:13:32;;;;;;;;;;;;;;;-3.35;75.87;103516.47;107422;1254;124189;-79
2023/02/09 01:15:58;;;;;;;;;;;;;;;-3.36;75.91;103510.85;107685;1259;60460;-80
2023/02/09 01:18:24;;;;;;;;;;;;;;;-3.35;76.02;103508.90;107587;1257;124493;-79
2023/02/09 01:20:52;;;;;;;;;;;;;;;-3.35;75.88;103506.91;107803;1257;59435;-79
2023/02/09 01:23:18;;;;;;;;;;;;;;;-3.35;75.92;103501.84;107799;1256;61417;-80
2023/02/09 01:25:44;;;;;;;;;;;;;;;-3.35;76.05;103496.56;107539;1254;124386;-79
2023/02/09 01:28:10;;;;;;;;;;;;;;;-3.36;75.87;103494.07;108000;1256;59707;-79
2023/02/09 01:30:36;;;;;;;;;;;;;;;-3.36;75.99;103488.00;107943;1257;124248;-79
2023/02/09 01:33:03;;;;;;;;;;;;;;;-3.36;75.97;103488.80;108014;1256;60734;-78
2023/02/09 01:35:29;;;;;;;;;;;;;;;-3.36;76.03;103482.09;108106;1256;61162;-79
2023/02/09 01:37:55;;;;;;;;;;;;;;;-3.36;76.13;103475.89;107903;1256;124332;-79
2023/02/09 01:40:21;;;;;;;;;;;;;;;-3.35;75.96;103471.66;108071;1256;59696;-79
2023/02/09 01:42:48;;;;;;;;;;;;;;;-3.36;76.07;103467.29;107832;1256;124809;-80
2023/02/09 01:45:29;;;;;;;;;;;;;;;-3.36;76.06;103466.03;107644;1257;59578;-79
2023/02/09 01:47:57;;;;;;;;;;;;;;;-3.36;76.10;103465.70;107544;1257;124787;-79
2023/02/09 01:50:24;;;;;;;;;;;;;;;-3.35;76.20;103461.14;107459;1257;60247;-80
2023/02/09 01:52:50;;;;;;;;;;;;;;;-3.35;76.08;103457.36;107516;1262;61219;-80
2023/02/09 01:55:17;;;;;;;;;;;;;;;-3.36;76.14;103456.80;108025;1256;125509;-80
2023/02/09 01:57:51;;;;;;;;;;;;;;;-3.36;76.14;103450.53;108104;1258;72958;-80
2023/02/09 02:00:18;;;;;;;;;;;;;;;-3.37;76.16;103447.23;107424;1258;125513;-80
2023/02/09 02:02:49;;;;;;;;;;;;;;;-3.37;76.11;103445.83;107600;1256;61244;-80
2023/02/09 02:05:16;;;;;;;;;;;;;;;-3.38;76.09;103445.77;107613;1256;75508;-80
2023/02/09 02:07:48;;;;;;;;;;;;;;;-3.39;76.14;103447.77;107519;1256;124977;-79
2023/02/09 02:10:15;;;;;;;;;;;;;;;-3.41;76.14;103446.92;107593;1259;72865;-80
2023/02/09 02:12:41;;;;;;;;;;;;;;;-3.40;76.19;103443.70;107624;1257;125264;-79
2023/02/09 02:15:07;;;;;;;;;;;;;;;-3.41;76.06;103446.03;107986;1256;59789;-80
2023/02/09 02:17:49;;;;;;;;;;;;;;;-3.42;76.06;103447.30;108097;1257;59797;-79
2023/02/09 02:20:34;;;;;;;;;;;;;;;-3.41;76.04;103442.50;107753;1256;65859;-79
2023/02/09 02:23:08;;;;;;;;;;;;;;;-3.41;76.19;103439.11;107686;1255;71162;-79
2023/02/09 02:25:46;;;;;;;;;;;;;;;-3.40;76.15;103436.86;107777;1259;125529;-79
2023/02/09 02:28:31;;;;;;;;;;;;;;;-3.41;76.12;103436.31;108738;1256;59545;-79
2023/02/09 02:31:06;;;;;;;;;;;;;;;-3.44;76.04;103433.48;108930;1253;124470;-79
2023/02/09 02:33:36;;;;;;;;;;;;;;;-3.45;75.99;103431.02;108975;1254;67275;-79
2023/02/09 02:36:15;;;;;;;;;;;;;;;-3.47;75.93;103424.81;108656;1257;124202;-79
2023/02/09 02:38:43;;;;;;;;;;;;;;;-3.49;75.96;103423.75;108845;1256;59409;-79
2023/02/09 02:41:13;;;;;;;;;;;;;;;-3.52;76.05;103415.92;108813;1256;59462;-79
2023/02/09 02:43:42;;;;;;;;;;;;;;;-3.55;75.88;103415.33;108894;1256;124615;-79
2023/02/09 02:46:13;;;;;;;;;;;;;;;-3.58;75.97;103404.54;108855;1258;65705;-79
2023/02/09 02:48:41;;;;;;;;;;;;;;;-3.62;75.86;103400.81;108786;1254;124357;-79
2023/02/09 02:51:10;;;;;;;;;;;;;;;-3.65;75.89;103400.29;108911;1254;59100;-79
2023/02/09 02:53:38;;;;;;;;;;;;;;;-3.69;75.89;103400.95;108760;1256;58976;-81
2023/02/09 02:56:06;;;;;;;;;;;;;;;-3.73;75.91;103402.09;107466;1258;124943;-80
2023/02/09 02:58:33;;;;;;;;;;;;;;;-3.76;75.98;103398.98;107361;1256;67730;-81
2023/02/09 03:01:00;;;;;;;;;;;;;;;-3.78;75.93;103395.73;107739;1257;125010;-80
2023/02/09 03:03:29;;;;;;;;;;;;;;;-3.81;75.93;103392.01;107977;1256;61216;-79
2023/02/09 03:05:55;;;;;;;;;;;;;;;-3.83;75.99;103394.59;107609;1255;124390;-80
2023/02/09 03:08:23;;;;;;;;;;;;;;;-3.86;75.97;103390.61;107593;1256;74615;-80
2023/02/09 03:10:49;;;;;;;;;;;;;;;-3.88;76.05;103385.35;107557;1254;59585;-81
2023/02/09 03:13:18;;;;;;;;;;;;;;;-3.92;76.04;103382.34;107600;1254;124373;-80
2023/02/09 03:16:04;;;;;;;;;;;;;;;-3.97;75.95;103380.16;107641;1256;59334;-78
2023/02/09 03:18:41;;;;;;;;;;;;;;;-4.07;75.85;103385.53;107480;1256;125056;-80
2023/02/09 03:21:14;;;;;;;;;;;;;;;-4.16;75.84;103385.00;107278;1254;73747;-81
2023/02/09 03:23:54;;;;;;;;;;;;;;;-4.21;75.93;103380.30;107427;1256;67064;-80
2023/02/09 03:26:21;;;;;;;;;;;;;;;-4.26;75.89;103379.27;107300;1258;71727;-81
2023/02/09 03:28:48;;;;;;;;;;;;;;;-4.30;75.96;103375.49;107374;1259;61277;-80
2023/02/09 03:31:14;;;;;;;;;;;;;;;-4.33;75.95;103368.64;107453;1256;125323;-81
2023/02/09 03:33:41;;;;;;;;;;;;;;;-4.34;76.04;103365.73;107680;1257;60190;-80
2023/02/09 03:36:08;;;;;;;;;;;;;;;-4.38;76.07;103363.91;107651;1259;124974;-80
2023/02/09 03:38:34;;;;;;;;;;;;;;;-4.40;76.08;103360.08;107853;1256;71331;-80
2023/02/09 03:41:01;;;;;;;;;;;;;;;-4.41;76.09;103355.59;107837;1257;61270;-80
2023/02/09 03:46:12;;;;;;;;;;;;;;;-4.46;75.99;103346.95;107955;1256;75082;-80
2023/02/09 03:48:38;;;;;;;;;;;;;;;-4.49;76.13;103346.91;107973;1259;125394;-79
2023/02/09 03:51:05;;;;;;;;;;;;;;;-4.51;76.03;103344.51;107944;1256;59317;-80
2023/02/09 03:53:33;;;;;;;;;;;;;;;-4.51;76.20;103343.58;107861;1257;61218;-80
2023/02/09 03:55:59;;;;;;;;;;;;;;;-4.52;76.09;103334.69;107753;1256;124944;-80
2023/02/09 03:58:26;;;;;;;;;;;;;;;-4.54;76.07;103332.23;107896;1257;61011;-80
2023/02/09 04:00:52;;;;;;;;;;;;;;;-4.56;75.99;103328.20;107721;1256;125366;-80
2023/02/09 04:03:18;;;;;;;;;;;;;;;-4.60;76.00;103323.30;108889;1256;59111;-80
2023/02/09 04:05:44;;;;;;;;;;;;;;;-4.60;76.15;103322.34;108969;1254;60130;-80
2023/02/09 04:08:11;;;;;;;;;;;;;;;-4.61;76.10;103323.94;108766;1256;124954;-80
2023/02/09 04:10:37;;;;;;;;;;;;;;;-4.64;76.07;103316.49;108820;1256;59294;-79
2023/02/09 04:13:03;;;;;;;;;;;;;;;-4.66;76.02;103315.72;108911;1254;124766;-79
2023/02/09 04:15:29;;;;;;;;;;;;;;;-4.68;76.08;103308.88;109017;1256;59952;-80
2023/02/09 04:17:56;;;;;;;;;;;;;;;-4.69;76.03;103305.86;108852;1256;125473;-80
2023/02/09 04:20:22;;;;;;;;;;;;;;;-4.68;76.22;103303.36;108951;1256;59850;-79
2023/02/09 04:22:48;;;;;;;;;;;;;;;-4.67;76.26;103302.13;108688;1256;59347;-80
2023/02/09 04:25:14;;;;;;;;;;;;;;;-4.67;76.32;103296.48;108717;1256;125560;-80
2023/02/09 04:27:41;;;;;;;;;;;;;;;-4.67;76.25;103294.27;108896;1254;60735;-80
2023/02/09 04:30:07;;;;;;;;;;;;;;;-4.66;76.38;103287.53;108737;1254;125025;-80
2023/02/09 04:32:34;;;;;;;;;;;;;;;-4.63;76.42;103284.28;108842;1259;59125;-80
2023/02/09 04:35:00;;;;;;;;;;;;;;;-4.62;76.44;103280.27;108909;1254;59272;-80
2023/02/09 04:37:26;;;;;;;;;;;;;;;-4.61;76.40;103278.33;109025;1256;124580;-80
2023/02/09 04:39:52;;;;;;;;;;;;;;;-4.59;76.48;103277.25;109023;1255;59382;-80
2023/02/09 04:42:19;;;;;;;;;;;;;;;-4.58;76.58;103269.47;108875;1257;124393;-81
2023/02/09 04:44:45;;;;;;;;;;;;;;;-4.58;76.62;103264.94;108935;1256;59154;-81
2023/02/09 04:47:11;;;;;;;;;;;;;;;-4.57;76.65;103263.50;108805;1259;65807;-81
2023/02/09 04:49:38;;;;;;;;;;;;;;;-4.56;76.79;103263.14;108710;1257;124390;-80
2023/02/09 04:52:04;;;;;;;;;;;;;;;-4.54;76.80;103262.75;108960;1256;59306;-80
2023/02/09 04:54:30;;;;;;;;;;;;;;;-4.54;76.85;103261.48;108865;1256;124940;-80
2023/02/09 04:59:43;;;;;;;;;;;;;;;-4.50;76.98;103247.70;109070;1256;67046;-81
2023/02/09 05:02:10;;;;;;;;;;;;;;;-4.45;77.10;103246.37;108387;1259;124358;-80
2023/02/09 05:04:36;;;;;;;;;;;;;;;-4.44;77.08;103239.23;107400;1256;61464;-80
2023/02/09 05:07:02;;;;;;;;;;;;;;;-4.41;77.09;103240.38;107379;1256;124665;-80
2023/02/09 05:09:29;;;;;;;;;;;;;;;-4.39;77.06;103233.38;107456;1257;61704;-79
2023/02/09 05:11:55;;;;;;;;;;;;;;;-4.35;77.07;103230.55;107498;1257;126878;-81
2023/02/09 05:14:21;;;;;;;;;;;;;;;-4.33;77.17;103226.23;107887;1257;61241;-80
2023/02/09 05:16:48;;;;;;;;;;;;;;;-4.29;77.16;103222.11;107844;1259;60931;-80
2023/02/09 05:19:14;;;;;;;;;;;;;;;-4.25;77.21;103220.47;107596;1256;125003;-81
2023/02/09 05:21:40;;;;;;;;;;;;;;;-4.22;77.13;103214.92;107633;1257;61384;-79
2023/02/09 05:24:06;;;;;;;;;;;;;;;-4.21;77.15;103217.77;107475;1256;125394;-79
2023/02/09 05:26:33;;;;;;;;;;;;;;;-4.17;77.13;103216.97;107595;1257;59919;-79
2023/02/09 05:28:59;;;;;;;;;;;;;;;-4.16;77.01;103216.98;107549;1256;59805;-79
2023/02/09 05:31:25;;;;;;;;;;;;;;;-4.14;77.02;103215.15;107762;1259;125004;-78
2023/02/09 05:33:52;;;;;;;;;;;;;;;-4.13;76.89;103217.64;107916;1257;59685;-78
2023/02/09 05:36:18;;;;;;;;;;;;;;;-4.14;76.82;103217.39;107904;1257;125689;-77
2023/02/09 05:38:45;;;;;;;;;;;;;;;-4.16;76.83;103214.52;107783;1259;61297;-85
2023/02/09 05:44:31;;;;;;;;;;;;;;;-4.25;76.54;103209.12;107261;1257;61253;-85
2023/02/09 05:46:58;;;;;;;;;;;;;;;-4.30;76.46;103202.52;107260;1256;61397;-85
2023/02/09 05:49:24;;;;;;;;;;;;;;;-4.37;76.33;103203.25;107155;1256;124788;-89
2023/02/09 05:51:52;;;;;;;;;;;;;;;-4.42;76.41;103202.48;107222;1256;61206;-86
2023/02/09 05:54:18;;;;;;;;;;;;;;;-4.46;76.24;103202.60;107265;1259;124993;-86
2023/02/09 05:56:48;;;;;;;;;;;;;;;-4.52;76.20;103200.73;107425;1256;61339;-87
2023/02/09 05:59:14;;;;;;;;;;;;;;;-4.56;76.21;103203.95;107427;1254;73943;-84
2023/02/09 06:01:40;;;;;;;;;;;;;;;-4.59;76.27;103195.48;107342;1257;124096;-84
2023/02/09 06:04:07;;;;;;;;;;;;;;;-4.61;76.28;103199.02;107172;1256;71641;-86
2023/02/09 06:06:34;;;;;;;;;;;;;;;-4.65;76.21;103195.09;106790;1257;124909;-85
2023/02/09 06:09:04;;;;;;;;;;;;;;;-4.72;76.09;103193.40;107017;1257;60892;-89
2023/02/09 06:12:03;;;;;;;;;;;;;;;-4.77;76.26;103194.09;107222;1256;74003;-86
2023/02/09 06:14:29;;;;;;;;;;;;;;;-4.85;76.18;103191.52;107206;1257;66972;-87
2023/02/09 06:16:58;;;;;;;;;;;;;;;-4.90;76.30;103188.73;107290;1259;61372;-91
2023/02/09 06:19:25;;;;;;;;;;;;;;;-4.94;76.23;103187.77;107061;1257;124236;-91
2023/02/09 06:21:51;;;;;;;;;;;;;;;-4.96;76.35;103186.94;107173;1262;61298;-90
2023/02/09 06:24:21;;;;;;;;;;;;;;;-4.99;76.33;103187.10;107499;1261;124534;-87
2023/02/09 06:26:49;;;;;;;;;;;;;;;-5.02;76.24;103184.84;107549;1263;69454;-89
2023/02/09 06:29:15;;;;;;;;;;;;;;;-5.06;76.33;103185.33;107206;1255;71396;-89
2023/02/09 06:31:41;;;;;;;;;;;;;;;-5.08;76.44;103185.95;107102;1257;124558;-89
2023/02/09 06:34:08;;;;;;;;;;;;;;;-5.09;76.46;103187.51;106993;1260;61391;-87
2023/02/09 06:36:34;;;;;;;;;;;;;;;-5.10;76.47;103189.27;107119;1258;124448;-87
2023/02/09 06:39:01;;;;;;;;;;;;;;;-5.11;76.58;103186.36;107153;1257;61263;-87
2023/02/09 06:41:28;;;;;;;;;;;;;;;-5.10;76.52;103183.18;107112;1262;59338;-89
2023/02/09 06:44:00;;;;;;;;;;;;;;;-5.11;76.50;103181.81;106918;1254;124437;-89
2023/02/09 06:46:27;;;;;;;;;;;;;;;-5.16;76.25;103181.99;107193;1257;61289;-88
2023/02/09 06:48:58;;;;;;;;;;;;;;;-5.19;76.45;103181.28;107107;1258;125140;-89
2023/02/09 06:51:24;;;;;;;;;;;;;;;-5.18;76.42;103181.61;107142;1257;68443;-88
2023/02/09 06:53:50;;;;;;;;;;;;;;;-5.17;76.60;103181.30;107173;1257;59407;-89
2023/02/09 06:56:28;;;;;;;;;;;;;;;-5.14;76.52;103175.08;106886;1258;125136;-88
2023/02/09 06:58:54;;;;;;;;;;;;;;;-5.14;76.37;103172.92;106946;1264;62049;-89
2023/02/09 07:01:21;;;;;;;;;;;;;;;-5.12;76.40;103170.51;107218;1259;125028;-90
2023/02/09 07:03:47;;;;;;;;;;;;;;;-5.11;76.32;103162.95;107378;1259;61152;-89
2023/02/09 07:06:15;;;;;;;;;;;;;;;-5.05;76.37;103166.33;107029;1257;125464;-88
2023/02/09 07:08:41;;;;;;;;;;;;;;;-4.97;76.52;103167.05;107099;1255;61305;-86
2023/02/09 07:11:09;;;;;;;;;;;;;;;-4.88;76.60;103169.16;107105;1256;61181;-87
2023/02/09 07:13:36;;;;;;;;;;;;;;;-4.79;76.43;103171.85;107434;1257;125012;-89
2023/02/09 07:16:03;;;;;;;;;;;;;;;-4.71;76.49;103175.93;107280;1256;67318;-88
2023/02/09 07:18:33;;;;;;;;;;;;;;;-4.62;76.46;103175.83;106958;1257;124937;-88
2023/02/09 07:21:03;;;;;;;;;;;;;;;-4.53;76.34;103171.65;107016;1257;61256;-87
2023/02/09 07:23:30;;;;;;;;;;;;;;;-4.45;76.22;103166.23;107018;1257;61230;-87
2023/02/09 07:25:59;;;;;;;;;;;;;;;-4.37;76.22;103168.91;106971;1260;124906;-88
2023/02/09 07:28:26;;;;;;;;;;;;;;;-4.27;76.15;103175.83;107114;1257;65984;-88
2023/02/09 07:30:53;;;;;;;;;;;;;;;-4.18;76.08;103174.57;107170;1261;125307;-87
2023/02/09 07:33:19;;;;;;;;;;;;;;;-4.08;75.97;103175.59;107062;1257;61393;-87
2023/02/09 07:35:47;;;;;;;;;;;;;;;-3.97;75.80;103175.59;107106;1259;60016;-87
2023/02/09 07:38:13;;;;;;;;;;;;;;;-3.89;75.72;103172.80;107028;1256;123284;-86
2023/02/09 07:40:44;;;;;;;;;;;;;;;-3.84;75.61;103164.80;106974;1257;61310;-87
2023/02/09 07:43:12;;;;;;;;;;;;;;;-3.81;75.43;103160.72;106961;1256;124390;-87
2023/02/09 07:45:38;;;;;;;;;;;;;;;-3.77;75.43;103154.80;107072;1260;61259;-88
2023/02/09 07:48:13;;;;;;;;;;;;;;;-3.73;75.29;103157.72;107105;1257;59725;-87
2023/02/09 07:50:48;;;;;;;;;;;;;;;-3.69;75.26;103162.64;106967;1263;73133;-87
2023/02/09 07:53:14;;;;;;;;;;;;;;;-3.65;75.21;103166.88;106959;1262;67642;-87
2023/02/09 07:55:40;;;;;;;;;;;;;;;-3.63;75.10;103169.06;106823;1262;124238;-88
2023/02/09 07:58:38;;;;;;;;;;;;;;;-3.62;75.11;103168.93;107095;1257;61387;-88
2023/02/09 08:01:06;;;;;;;;;;;;;;;-3.61;74.99;103164.45;107333;1259;124670;-88
2023/02/09 08:03:34;;;;;;;;;;;;;;;-3.59;74.99;103161.22;107154;1257;72989;-88
2023/02/09 08:06:01;;;;;;;;;;;;;;;-3.59;74.90;103166.59;107091;1262;67102;-87
2023/02/09 08:08:27;;;;;;;;;;;;;;;-3.58;75.02;103165.54;107253;1261;124509;-88
2023/02/09 08:11:04;;;;;;;;;;;;;;;-3.58;74.79;103163.24;107346;1254;61224;-87
2023/02/09 08:13:33;;;;;;;;;;;;;;;-3.57;74.78;103163.60;107075;1257;124465;-87
2023/02/09 08:16:04;;;;;;;;;;;;;;;-3.52;74.84;103160.89;107119;1257;73711;-89
2023/02/09 08:18:46;;;;;;;;;;;;;;;-3.50;74.87;103156.17;107176;1256;124892;-88
2023/02/09 08:21:13;;;;;;;;;;;;;;;-3.49;74.69;103156.85;107018;1263;72714;-88
2023/02/09 08:23:39;;;;;;;;;;;;;;;-3.47;74.57;103157.55;107002;1257;61295;-88
2023/02/09 08:26:17;;;;;;;;;;;;;;;;;;;;;
2023/02/09 08:28:46;;;;;;;;;;;;;;;-3.42;74.66;103146.63;107264;1257;74799;-88
2023/02/09 08:31:14;;;;;;;;;;;;;;;-3.37;74.57;103148.83;107406;1257;125034;-88
2023/02/09 08:33:41;;;;;;;;;;;;;;;-3.33;74.54;103148.95;107284;1256;70476;-88
2023/02/09 08:36:08;;;;;;;;;;;;;;;-3.28;74.52;103146.36;107471;1257;61286;-84
2023/02/09 08:38:34;;;;;;;;;;;;;;;-3.22;74.54;103152.78;107020;1262;124597;-89
2023/02/09 08:41:03;;;;;;;;;;;;;;;-3.14;74.43;103158.59;107053;1263;61201;-88
2023/02/09 08:43:30;;;;;;;;;;;;;;;-3.04;74.66;103163.49;107130;1257;124801;-88
2023/02/09 08:46:00;;;;;;;;;;;;;;;-2.91;74.64;103161.73;107209;1257;71082;-81
2023/02/09 08:48:29;;;;;;;;;;;;;;;-2.78;74.55;103152.51;107088;1262;124340;-82
2023/02/09 08:50:57;;;;;;;;;;;;;;;-2.64;74.54;103155.18;107265;1255;61295;-82
2023/02/09 08:53:23;;;;;;;;;;;;;;;-2.59;74.34;103152.15;107169;1257;75231;-81
2023/02/09 08:55:50;;;;;;;;;;;;;;;-2.53;74.28;103154.88;107270;1256;124825;-81
2023/02/09 08:58:16;;;;;;;;;;;;;;;-2.50;74.09;103150.53;107354;1257;61149;-81
2023/02/09 09:00:42;;;;;;;;;;;;;;;-2.47;74.03;103142.41;107331;1259;124254;-81
2023/02/09 09:03:08;;;;;;;;;;;;;;;-2.50;73.75;103137.12;107251;1256;61412;-88
2023/02/09 09:05:45;;;;;;;;;;;;;;;-2.50;73.72;103126.48;107116;1257;59316;-89
2023/02/09 09:08:11;;;;;;;;;;;;;;;-2.52;73.66;103125.55;107241;1257;124727;-88
2023/02/09 09:10:37;;;;;;;;;;;;;;;-2.55;73.54;103122.80;107252;1256;61208;-88
2023/02/09 09:13:03;;;;;;;;;;;;;;;-2.55;73.56;103121.18;107186;1261;124718;-88
2023/02/09 09:15:30;;;;;;;;;;;;;;;-2.55;73.41;103116.95;107333;1257;61302;-89
2023/02/09 09:17:56;;;;;;;;;;;;;;;-2.56;73.51;103116.95;107237;1259;61381;-89
2023/02/09 09:20:22;;;;;;;;;;;;;;;-2.54;73.42;103118.02;107474;1260;124071;-89
2023/02/09 09:22:50;;;;;;;;;;;;;;;-2.49;73.50;103113.02;107409;1261;61120;-88
2023/02/09 09:25:16;;;;;;;;;;;;;;;-2.44;73.57;103113.59;106963;1258;124462;-88
2023/02/09 09:27:44;;;;;;;;;;;;;;;-2.40;73.42;103107.14;107258;1256;59328;-88
2023/02/09 09:30:10;;;;;;;;;;;;;;;-2.36;73.47;103102.04;107105;1260;73259;-89
2023/02/09 09:32:36;;;;;;;;;;;;;;;-2.31;73.47;103100.13;107154;1257;124097;-89
2023/02/09 09:35:03;;;;;;;;;;;;;;;-2.26;73.40;103093.09;107073;1257;61282;-89
2023/02/09 09:37:29;;;;;;;;;;;;;;;-2.22;73.36;103091.90;107117;1257;124713;-89
2023/02/09 09:39:56;;;;;;;;;;;;;;;-2.13;73.42;103092.18;107357;1257;59283;-89
2023/02/09 09:43:15;;;;;;;;;;;;;;;-2.05;73.40;103094.77;107317;1257;125480;-88
2023/02/09 09:45:43;;;;;;;;;;;;;;;-1.96;73.26;103089.08;107292;1257;64834;-81
2023/02/09 09:48:16;;;;;;;;;;;;;;;-1.88;73.29;103084.18;107044;1258;212329;-82
2023/02/09 09:50:45;;;;;;;;;;;;;;;-1.80;73.05;103075.29;107147;1257;124955;-82
2023/02/09 09:53:24;;;;;;;;;;;;;;;-1.72;72.91;103068.56;107184;1257;61189;-82
2023/02/09 09:55:54;;;;;;;;;;;;;;;-1.63;72.98;103060.91;107251;1262;125397;-82
2023/02/09 09:58:21;;;;;;;;;;;;;;;-1.54;72.96;103059.83;107820;1260;67194;-82
2023/02/09 10:00:50;;;;;;;;;;;;;;;-1.42;72.89;103055.20;107728;1255;124824;-81
2023/02/09 10:03:22;;;;;;;;;;;;;;;-1.31;72.83;103051.70;107330;1260;61412;-82
2023/02/09 10:05:54;;;;;;;;;;;;;;;-1.23;72.64;103051.54;107209;1261;59938;-82
2023/02/09 10:08:38;;;;;;;;;;;;;;;-1.14;72.52;103044.64;107065;1256;125140;-82
2023/02/09 10:11:05;;;;;;;;;;;;;;;-1.04;72.67;103041.42;107571;1260;66982;-88
2023/02/09 10:13:38;;;;;;;;;;;;;;;-0.94;72.47;103036.61;107301;1257;124611;-89
2023/02/09 10:16:26;;;;;;;;;;;;;;;-0.83;72.51;103031.59;107302;1255;61363;-88
2023/02/09 10:18:57;;;;;;;;;;;;;;;-0.72;72.23;103025.51;106612;1268;125440;-87
2023/02/09 10:21:26;;;;;;;;;;;;;;;-0.63;72.36;103015.29;106656;1267;74595;-88
2023/02/09 10:23:58;;;;;;;;;;;;;;;-0.53;72.18;103007.53;106639;1264;66396;-88
2023/02/09 10:26:25;;;;;;;;;;;;;;;-0.45;72.03;103008.08;106594;1270;124155;-88
2023/02/09 10:28:57;;;;;;;;;;;;;;;-0.35;71.85;103001.45;106581;1265;61299;-87
2023/02/09 10:31:44;;;;;;;;;;;;;;;-0.30;71.91;102998.55;106534;1266;124656;-88
2023/02/09 10:34:14;;;;;;;;;;;;;;;-0.26;71.68;102990.55;106607;1264;74693;-87
2023/02/09 10:36:59;;;;;;;;;;;;;;;-0.18;71.59;102992.39;106433;1267;124305;-87
2023/02/09 10:39:29;;;;;;;;;;;;;;;-0.10;71.46;102984.08;106804;1267;73224;-87
2023/02/09 10:41:59;;;;;;;;;;;;;;;-0.05;71.47;102980.24;106910;1267;61243;-87
2023/02/09 10:44:33;;;;;;;;;;;;;;;-0.03;71.26;102973.81;106701;1268;124889;-87
2023/02/09 10:47:08;;;;;;;;;;;;;;;0.02;71.07;102966.80;106846;1265;74708;-87
2023/02/09 10:49:38;;;;;;;;;;;;;;;0.08;71.16;102961.07;106641;1265;124406;-87
2023/02/09 10:52:15;;;;;;;;;;;;;;;0.13;70.90;102956.20;106881;1263;71419;-89
2023/02/09 10:54:42;;;;;;;;;;;;;;;0.19;70.85;102949.39;106751;1268;124615;-89
2023/02/09 10:57:21;;;;;;;;;;;;;;;0.25;70.94;102942.08;107394;1254;61369;-88
2023/02/09 10:59:52;;;;;;;;;;;;;;;0.32;70.78;102935.69;107458;1257;75068;-89
2023/02/09 11:02:44;;;;;;;;;;;;;;;0.40;70.70;102934.30;107237;1260;124181;-89
2023/02/09 11:05:20;;;;;;;;;;;;;;;0.47;70.56;102932.14;107351;1260;70853;-89
2023/02/09 11:07:53;;;;;;;;;;;;;;;0.51;70.68;102924.36;107454;1256;124107;-89
2023/02/09 11:10:20;;;;;;;;;;;;;;;0.58;70.41;102919.13;107675;1259;59828;-89
2023/02/09 11:12:46;;;;;;;;;;;;;;;0.63;70.35;102912.34;107385;1260;124439;-89
2023/02/09 11:15:13;;;;;;;;;;;;;;;0.70;70.29;102911.58;107272;1260;61124;-88
2023/02/09 11:17:41;;;;;;;;;;;;;;;0.78;70.10;102907.43;107357;1262;72579;-81
2023/02/09 11:20:16;;;;;;;;;;;;;;;0.85;70.11;102898.64;107057;1258;125480;-82
2023/02/09 11:22:58;;;;;;;;;;;;;;;0.93;69.98;102883.02;107473;1254;61125;-82
2023/02/09 11:25:32;;;;;;;;;;;;;;;1.04;69.93;102869.55;107357;1255;123871;-89
2023/02/09 11:28:07;;;;;;;;;;;;;;;1.15;69.85;102850.73;107354;1262;66770;-81
2023/02/09 11:30:36;;;;;;;;;;;;;;;1.27;69.73;102845.85;107320;1258;124868;-82
2023/02/09 11:33:09;;;;;;;;;;;;;;;1.37;69.60;102836.20;107252;1258;59309;-82
2023/02/09 11:35:41;;;;;;;;;;;;;;;1.44;69.38;102829.42;107223;1260;59624;-82
2023/02/09 11:38:16;;;;;;;;;;;;;;;1.46;69.17;102823.83;107140;1258;124637;-82
2023/02/09 11:40:57;;;;;;;;;;;;;;;1.55;69.23;102816.15;107179;1258;67973;-83
2023/02/09 11:43:28;;;;;;;;;;;;;;;1.61;68.98;102813.95;107158;1257;124033;-83
2023/02/09 11:45:55;;;;;;;;;;;;;;;1.65;68.72;102815.02;107195;1254;61279;-89
2023/02/09 11:48:29;;;;;;;;;;;;;;;1.69;68.59;102814.58;107370;1260;61288;-88
2023/02/09 11:51:08;;;;;;;;;;;;;;;1.69;68.43;102809.56;107351;1257;73354;-88
2023/02/09 11:53:38;;;;;;;;;;;;;;;1.69;68.43;102801.51;107209;1257;65588;-88
2023/02/09 11:56:05;;;;;;;;;;;;;;;1.67;68.49;102801.46;107024;1258;123977;-88
2023/02/09 11:58:35;;;;;;;;;;;;;;;1.62;68.23;102800.88;107227;1257;61296;-87
2023/02/09 12:01:12;;;;;;;;;;;;;;;1.58;68.20;102798.76;107492;1260;124148;-88
2023/02/09 12:03:43;;;;;;;;;;;;;;;1.59;68.24;102801.93;107185;1257;72808;-89
2023/02/09 12:06:10;;;;;;;;;;;;;;;1.62;68.13;102804.17;107070;1262;65543;-88
2023/02/09 12:08:43;;;;;;;;;;;;;;;1.66;68.24;102805.60;107037;1257;123940;-88
2023/02/09 12:11:28;;;;;;;;;;;;;;;1.69;68.19;102801.73;107125;1259;61901;-89
2023/02/09 12:14:07;;;;;;;;;;;;;;;1.69;67.97;102807.40;107115;1257;124933;-89
2023/02/09 12:16:40;;;;;;;;;;;;;;;1.67;67.90;102801.55;107283;1258;75175;-89
2023/02/09 12:19:18;;;;;;;;;;;;;;;1.60;67.59;102799.14;107082;1255;124091;-89
2023/02/09 12:21:45;;;;;;;;;;;;;;;1.59;67.84;102797.27;107120;1257;71345;-89
2023/02/09 12:24:41;;;;;;;;;;;;;;;1.59;67.74;102785.86;107153;1258;61224;-89
2023/02/09 12:27:40;;;;;;;;;;;;;;;1.63;67.92;102772.44;106733;1269;61358;-91
2023/02/09 12:30:27;;;;;;;;;;;;;;;1.67;67.79;102757.39;106780;1264;73169;-82
2023/02/09 12:32:54;;;;;;;;;;;;;;;1.68;67.69;102746.23;106917;1264;123842;-88
2023/02/09 12:35:24;;;;;;;;;;;;;;;1.66;67.64;102743.29;106841;1264;59370;-82
2023/02/09 12:38:07;;;;;;;;;;;;;;;1.60;67.49;102736.13;106788;1263;123897;-82
2023/02/09 12:40:35;;;;;;;;;;;;;;;1.52;67.35;102736.48;106905;1264;61237;-89
2023/02/09 12:43:01;;;;;;;;;;;;;;;1.46;67.45;102741.27;106761;1262;124089;-82
2023/02/09 12:45:29;;;;;;;;;;;;;;;1.39;67.46;102751.82;106971;1264;61254;-82
2023/02/09 12:47:56;;;;;;;;;;;;;;;1.34;67.40;102759.34;106837;1264;72656;-89
2023/02/09 12:50:26;;;;;;;;;;;;;;;1.34;67.45;102755.60;106716;1269;124193;-90
2023/02/09 12:53:11;;;;;;;;;;;;;;;1.38;67.56;102753.63;106829;1267;60557;-89